createdAt,value
2022-10-14T00:00:47.928Z,15.68
2022-10-14T00:01:49.720Z,15.00
2022-10-14T00:02:51.540Z,15.68
2022-10-14T00:03:53.837Z,17.08
2022-10-14T00:04:55.389Z,15.88
2022-10-14T00:05:57.150Z,15.25
2022-10-14T00:06:58.756Z,15.07
2022-10-14T00:08:00.333Z,16.50
2022-10-14T00:09:04.263Z,15.43
2022-10-14T00:10:06.546Z,15.98
2022-10-14T00:11:09.933Z,15.55
2022-10-14T00:12:11.497Z,15.17
2022-10-14T00:13:13.057Z,15.95
2022-10-14T00:14:18.975Z,15.57
2022-10-14T00:15:20.752Z,15.73
2022-10-14T00:16:29.803Z,15.85
2022-10-14T00:17:31.351Z,16.13
2022-10-14T00:18:32.906Z,14.82
2022-10-14T00:19:34.508Z,14.98
2022-10-14T00:20:36.275Z,15.95
2022-10-14T00:21:38.880Z,15.57
2022-10-14T00:22:40.433Z,14.80
2022-10-14T00:23:41.996Z,16.17
2022-10-14T00:24:43.563Z,15.23
2022-10-14T00:25:45.132Z,15.32
2022-10-14T00:26:46.917Z,15.43
2022-10-14T00:27:48.448Z,15.32
2022-10-14T00:28:50.372Z,14.82
2022-10-14T00:29:52.008Z,15.65
2022-10-14T00:30:57.704Z,16.05
2022-10-14T00:31:59.338Z,15.45
2022-10-14T00:33:00.917Z,15.50
2022-10-14T00:34:02.587Z,15.27
2022-10-14T00:35:04.558Z,14.70
2022-10-14T00:36:06.817Z,15.35
2022-10-14T00:37:08.445Z,15.55
2022-10-14T00:38:10.010Z,16.77
2022-10-14T00:39:11.641Z,14.50
2022-10-14T00:40:13.241Z,15.32
2022-10-14T00:41:19.696Z,16.13
2022-10-14T00:42:22.179Z,15.02
2022-10-14T00:43:24.840Z,15.83
2022-10-14T00:44:26.323Z,15.07
2022-10-14T00:45:27.971Z,15.02
2022-10-14T00:46:39.983Z,14.85
2022-10-14T00:47:42.651Z,15.20
2022-10-14T00:48:44.221Z,14.63
2022-10-14T00:49:45.765Z,14.00
2022-10-14T00:50:47.739Z,14.05
2022-10-14T00:51:58.568Z,15.23
2022-10-14T00:53:00.205Z,14.25
2022-10-14T00:54:01.841Z,14.63
2022-10-14T00:55:13.431Z,14.15
2022-10-14T00:56:16.409Z,13.23
2022-10-14T00:57:18.278Z,13.45
2022-10-14T00:58:20.011Z,14.27
2022-10-14T00:59:21.648Z,13.93
2022-10-14T01:00:23.256Z,14.15
2022-10-14T01:01:24.981Z,14.20
2022-10-14T01:02:26.653Z,14.65
2022-10-14T01:03:28.266Z,14.20
2022-10-14T01:04:29.866Z,13.77
2022-10-14T01:05:32.543Z,14.90
2022-10-14T01:06:40.507Z,14.55
2022-10-14T01:07:46.949Z,13.35
2022-10-14T01:09:15.617Z,13.93
2022-10-14T01:10:33.493Z,14.35
2022-10-14T01:12:23.361Z,13.93
2022-10-14T01:13:24.247Z,13.65
2022-10-14T01:14:32.156Z,13.38
2022-10-14T01:15:42.661Z,13.70
2022-10-14T01:17:02.688Z,12.97
2022-10-14T01:18:04.200Z,13.45
2022-10-14T01:19:19.034Z,13.70
2022-10-14T01:20:23.536Z,14.02
2022-10-14T01:21:40.806Z,13.30
2022-10-14T01:22:58.139Z,13.15
2022-10-14T01:24:15.433Z,13.35
2022-10-14T01:25:28.979Z,13.98
2022-10-14T01:26:38.351Z,13.65
2022-10-14T01:27:57.944Z,13.32
2022-10-14T01:29:47.151Z,12.67
2022-10-14T01:30:58.299Z,12.98
2022-10-14T01:32:02.992Z,13.02
2022-10-14T01:33:06.424Z,13.45
2022-10-14T01:34:10.274Z,12.88
2022-10-14T01:35:44.251Z,13.50
2022-10-14T01:36:50.646Z,13.18
2022-10-14T01:38:01.188Z,13.35
2022-10-14T01:39:23.943Z,14.07
2022-10-14T01:40:36.671Z,13.25
2022-10-14T01:41:43.664Z,12.43
2022-10-14T01:42:45.261Z,13.32
2022-10-14T01:43:47.327Z,13.02
2022-10-14T01:44:51.893Z,13.32
2022-10-14T01:45:53.450Z,13.05
2022-10-14T01:46:55.330Z,13.68
2022-10-14T01:47:56.895Z,13.50
2022-10-14T01:49:00.886Z,12.75
2022-10-14T01:50:09.780Z,13.07
2022-10-14T01:51:15.678Z,13.63
2022-10-14T01:52:22.942Z,12.50
2022-10-14T01:53:26.315Z,12.75
2022-10-14T01:54:31.229Z,12.70
2022-10-14T01:55:37.274Z,12.75
2022-10-14T01:56:40.667Z,12.60
2022-10-14T01:57:42.451Z,12.13
2022-10-14T01:58:44.027Z,12.98
2022-10-14T01:59:45.989Z,13.43
2022-10-14T02:00:48.124Z,12.55
2022-10-14T02:01:49.713Z,11.98
2022-10-14T02:02:51.287Z,13.43
2022-10-14T02:03:52.859Z,14.13
2022-10-14T02:04:54.409Z,14.00
2022-10-14T02:06:01.780Z,13.27
2022-10-14T02:07:12.072Z,13.30
2022-10-14T02:08:35.121Z,13.35
2022-10-14T02:10:03.046Z,14.55
2022-10-14T02:11:10.470Z,12.73
2022-10-14T02:12:28.614Z,13.85
2022-10-14T02:14:05.526Z,12.38
2022-10-14T02:15:09.830Z,11.90
2022-10-14T02:16:33.985Z,12.02
2022-10-14T02:17:48.337Z,12.15
2022-10-14T02:19:01.800Z,12.57
2022-10-14T02:20:26.535Z,12.30
2022-10-14T02:21:39.884Z,11.77
2022-10-14T02:22:43.462Z,12.45
2022-10-14T02:23:47.046Z,12.40
2022-10-14T02:24:52.193Z,12.57
2022-10-14T02:25:53.765Z,12.23
2022-10-14T02:26:55.845Z,12.80
2022-10-14T02:27:58.189Z,12.75
2022-10-14T02:28:59.830Z,12.27
2022-10-14T02:30:01.592Z,12.60
2022-10-14T02:31:06.351Z,13.13
2022-10-14T02:32:08.398Z,13.70
2022-10-14T02:33:10.081Z,12.88
2022-10-14T02:34:12.335Z,13.07
2022-10-14T02:35:15.813Z,14.40
2022-10-14T02:36:19.164Z,14.55
2022-10-14T02:37:21.422Z,14.00
2022-10-14T02:38:22.994Z,13.43
2022-10-14T02:39:36.295Z,13.05
2022-10-14T02:40:40.634Z,13.52
2022-10-14T02:41:42.176Z,12.55
2022-10-14T02:42:43.715Z,13.50
2022-10-14T02:43:45.674Z,13.60
2022-10-14T02:44:57.326Z,13.38
2022-10-14T02:46:00.136Z,12.63
2022-10-14T02:47:01.740Z,13.02
2022-10-14T02:48:03.393Z,13.50
2022-10-14T02:49:04.928Z,12.40
2022-10-14T02:50:07.159Z,12.82
2022-10-14T02:51:09.727Z,13.15
2022-10-14T02:52:11.323Z,13.13
2022-10-14T02:53:13.187Z,13.13
2022-10-14T02:54:14.764Z,12.73
2022-10-14T02:55:16.304Z,13.05
2022-10-14T02:56:17.953Z,12.98
2022-10-14T02:57:19.584Z,13.60
2022-10-14T02:58:21.205Z,13.73
2022-10-14T02:59:22.761Z,13.25
2022-10-14T03:00:24.331Z,14.10
2022-10-14T03:01:26.037Z,14.30
2022-10-14T03:02:27.654Z,13.60
2022-10-14T03:03:29.195Z,13.93
2022-10-14T03:04:30.777Z,13.25
2022-10-14T03:05:32.362Z,14.75
2022-10-14T03:06:33.978Z,13.88
2022-10-14T03:07:35.554Z,14.60
2022-10-14T03:08:37.548Z,14.30
2022-10-14T03:09:39.113Z,13.02
2022-10-14T03:10:40.686Z,13.80
2022-10-14T03:11:42.318Z,14.25
2022-10-14T03:12:43.856Z,13.80
2022-10-14T03:13:45.396Z,13.77
2022-10-14T03:14:48.394Z,13.45
2022-10-14T03:15:53.385Z,14.13
2022-10-14T03:16:54.975Z,14.63
2022-10-14T03:17:56.586Z,14.35
2022-10-14T03:18:58.147Z,13.30
2022-10-14T03:19:59.754Z,13.20
2022-10-14T03:21:01.336Z,13.48
2022-10-14T03:22:02.952Z,13.95
2022-10-14T03:23:04.534Z,13.20
2022-10-14T03:24:06.523Z,13.05
2022-10-14T03:25:08.500Z,12.32
2022-10-14T03:26:13.837Z,14.10
2022-10-14T03:27:15.894Z,13.05
2022-10-14T03:28:17.580Z,13.68
2022-10-14T03:29:19.170Z,13.73
2022-10-14T03:30:20.698Z,35.22
2022-10-14T03:31:22.269Z,15.10
2022-10-14T03:32:24.253Z,13.15
2022-10-14T03:33:26.156Z,14.38
2022-10-14T03:34:28.367Z,14.05
2022-10-14T03:35:29.939Z,14.45
2022-10-14T03:36:31.555Z,13.73
2022-10-14T03:37:33.183Z,14.45
2022-10-14T03:38:34.797Z,14.95
2022-10-14T03:39:36.360Z,13.37
2022-10-14T03:40:37.934Z,13.20
2022-10-14T03:41:39.594Z,13.95
2022-10-14T03:42:41.380Z,14.68
2022-10-14T03:43:42.978Z,16.30
2022-10-14T03:44:45.079Z,17.42
2022-10-14T03:45:46.628Z,21.23
2022-10-14T03:46:48.193Z,14.63
2022-10-14T03:47:49.741Z,17.17
2022-10-14T03:48:51.350Z,18.25
2022-10-14T03:49:52.960Z,16.83
2022-10-14T03:50:54.514Z,16.17
2022-10-14T03:51:56.050Z,18.30
2022-10-14T03:52:57.606Z,18.65
2022-10-14T03:53:59.171Z,19.38
2022-10-14T03:55:00.842Z,19.85
2022-10-14T03:56:02.406Z,18.95
2022-10-14T03:57:04.015Z,17.83
2022-10-14T03:58:05.707Z,23.35
2022-10-14T03:59:07.339Z,37.20
2022-10-14T04:00:09.695Z,18.13
2022-10-14T04:01:11.254Z,18.67
2022-10-14T04:02:12.846Z,17.48
2022-10-14T04:03:14.412Z,20.10
2022-10-14T04:04:16.060Z,19.33
2022-10-14T04:05:17.696Z,18.90
2022-10-14T04:06:19.271Z,18.92
2022-10-14T04:07:20.803Z,19.52
2022-10-14T04:08:22.334Z,19.95
2022-10-14T04:09:24.035Z,20.42
2022-10-14T04:10:25.634Z,20.03
2022-10-14T04:11:27.203Z,19.35
2022-10-14T04:12:28.756Z,20.40
2022-10-14T04:13:30.305Z,19.90
2022-10-14T04:14:31.955Z,19.13
2022-10-14T04:15:35.420Z,19.45
2022-10-14T04:16:36.974Z,19.83
2022-10-14T04:17:38.593Z,19.98
2022-10-14T04:18:40.158Z,19.48
2022-10-14T04:19:41.805Z,20.35
2022-10-14T04:20:43.388Z,19.83
2022-10-14T04:21:45.208Z,20.77
2022-10-14T04:22:46.758Z,21.73
2022-10-14T04:23:48.383Z,20.52
2022-10-14T04:24:50.106Z,21.63
2022-10-14T04:25:51.657Z,22.52
2022-10-14T04:26:53.285Z,21.40
2022-10-14T04:27:54.854Z,21.52
2022-10-14T04:28:56.457Z,23.00
2022-10-14T04:29:58.112Z,22.83
2022-10-14T04:30:59.757Z,22.27
2022-10-14T04:32:01.425Z,21.83
2022-10-14T04:33:03.006Z,21.67
2022-10-14T04:34:04.621Z,20.75
2022-10-14T04:35:06.531Z,20.33
2022-10-14T04:36:09.322Z,21.23
2022-10-14T04:37:10.976Z,19.70
2022-10-14T04:38:12.592Z,20.80
2022-10-14T04:39:15.385Z,20.23
2022-10-14T04:40:17.016Z,21.10
2022-10-14T04:41:18.907Z,19.77
2022-10-14T04:42:20.755Z,18.95
2022-10-14T04:43:22.514Z,19.50
2022-10-14T04:44:24.058Z,20.35
2022-10-14T04:45:25.979Z,24.40
2022-10-14T04:46:27.517Z,19.67
2022-10-14T04:47:29.144Z,24.05
2022-10-14T04:48:30.703Z,26.92
2022-10-14T04:49:32.276Z,24.45
2022-10-14T04:50:33.824Z,22.05
2022-10-14T04:51:35.465Z,20.40
2022-10-14T04:52:37.079Z,19.00
2022-10-14T04:53:38.694Z,19.02
2022-10-14T04:54:40.287Z,18.65
2022-10-14T04:55:41.840Z,20.80
2022-10-14T04:56:43.375Z,18.63
2022-10-14T04:57:44.950Z,18.58
2022-10-14T04:58:46.625Z,19.23
2022-10-14T04:59:48.167Z,19.35
2022-10-14T05:00:49.736Z,26.60
2022-10-14T05:01:51.388Z,19.33
2022-10-14T05:02:52.988Z,20.08
2022-10-14T05:03:55.214Z,18.73
2022-10-14T05:04:57.478Z,17.55
2022-10-14T05:05:59.181Z,18.92
2022-10-14T05:07:00.755Z,17.73
2022-10-14T05:08:02.404Z,19.05
2022-10-14T05:09:05.538Z,17.65
2022-10-14T05:10:07.779Z,18.00
2022-10-14T05:11:09.350Z,17.80
2022-10-14T05:12:10.931Z,18.17
2022-10-14T05:13:12.521Z,16.30
2022-10-14T05:14:14.155Z,17.60
2022-10-14T05:15:16.025Z,16.90
2022-10-14T05:16:17.951Z,17.23
2022-10-14T05:17:20.261Z,16.75
2022-10-14T05:18:22.153Z,16.90
2022-10-14T05:19:23.777Z,17.02
2022-10-14T05:20:25.371Z,17.48
2022-10-14T05:21:26.923Z,16.58
2022-10-14T05:22:28.499Z,15.97
2022-10-14T05:23:30.048Z,19.27
2022-10-14T05:24:31.671Z,16.23
2022-10-14T05:25:33.203Z,16.95
2022-10-14T05:26:34.819Z,16.98
2022-10-14T05:27:36.378Z,17.38
2022-10-14T05:28:40.532Z,17.98
2022-10-14T05:29:42.222Z,16.88
2022-10-14T05:30:43.915Z,17.08
2022-10-14T05:31:45.503Z,16.42
2022-10-14T05:32:47.133Z,17.33
2022-10-14T05:33:48.704Z,16.35
2022-10-14T05:34:50.339Z,17.38
2022-10-14T05:35:59.228Z,16.60
2022-10-14T05:37:01.385Z,16.27
2022-10-14T05:38:04.319Z,16.42
2022-10-14T05:39:09.314Z,16.42
2022-10-14T05:40:11.478Z,16.63
2022-10-14T05:41:13.102Z,16.50
2022-10-14T05:42:14.664Z,15.55
2022-10-14T05:43:16.256Z,18.13
2022-10-14T05:44:17.952Z,18.08
2022-10-14T05:45:19.585Z,18.23
2022-10-14T05:46:21.451Z,19.23
2022-10-14T05:47:23.046Z,18.73
2022-10-14T05:48:24.702Z,18.15
2022-10-14T05:49:26.281Z,16.35
2022-10-14T05:50:27.882Z,17.20
2022-10-14T05:51:29.422Z,17.65
2022-10-14T05:52:34.323Z,16.55
2022-10-14T05:53:37.014Z,16.90
2022-10-14T05:54:38.608Z,14.60
2022-10-14T05:55:41.535Z,18.42
2022-10-14T05:56:43.147Z,17.17
2022-10-14T05:57:44.809Z,15.50
2022-10-14T05:58:46.362Z,15.73
2022-10-14T05:59:47.908Z,15.93
2022-10-14T06:00:49.452Z,16.55
2022-10-14T06:01:51.268Z,16.02
2022-10-14T06:02:52.918Z,16.85
2022-10-14T06:03:54.583Z,15.80
2022-10-14T06:04:56.147Z,15.93
2022-10-14T06:05:57.804Z,15.90
2022-10-14T06:06:59.443Z,15.88
2022-10-14T06:08:01.018Z,17.30
2022-10-14T06:09:03.440Z,15.65
2022-10-14T06:10:07.404Z,16.25
2022-10-14T06:11:08.973Z,15.52
2022-10-14T06:12:10.656Z,16.33
2022-10-14T06:13:12.445Z,16.65
2022-10-14T06:14:14.032Z,17.37
2022-10-14T06:15:15.763Z,16.30
2022-10-14T06:16:17.583Z,16.73
2022-10-14T06:17:19.290Z,15.18
2022-10-14T06:18:21.166Z,15.65
2022-10-14T06:19:22.803Z,15.40
2022-10-14T06:20:24.414Z,15.38
2022-10-14T06:21:26.311Z,16.15
2022-10-14T06:22:28.354Z,15.40
2022-10-14T06:23:29.995Z,15.75
2022-10-14T06:24:31.600Z,15.70
2022-10-14T06:25:33.210Z,14.93
2022-10-14T06:26:34.752Z,15.02
2022-10-14T06:27:36.410Z,16.17
2022-10-14T06:28:38.124Z,16.23
2022-10-14T06:29:39.712Z,15.50
2022-10-14T06:30:41.273Z,15.88
2022-10-14T06:31:42.939Z,15.85
2022-10-14T06:32:44.608Z,16.30
2022-10-14T06:33:46.223Z,15.95
2022-10-14T06:34:47.783Z,15.37
2022-10-14T06:35:49.354Z,16.27
2022-10-14T06:36:50.979Z,15.75
2022-10-14T06:37:52.630Z,15.73
2022-10-14T06:38:54.512Z,15.05
2022-10-14T06:39:56.095Z,15.80
2022-10-14T06:40:57.676Z,15.52
2022-10-14T06:41:59.262Z,15.27
2022-10-14T06:43:00.892Z,15.98
2022-10-14T06:44:02.462Z,15.57
2022-10-14T06:45:04.960Z,15.70
2022-10-14T06:46:06.550Z,16.35
2022-10-14T06:47:08.231Z,16.05
2022-10-14T06:48:10.002Z,16.05
2022-10-14T06:49:11.584Z,16.30
2022-10-14T06:50:13.150Z,15.65
2022-10-14T06:51:14.725Z,15.35
2022-10-14T06:52:16.268Z,16.17
2022-10-14T06:53:17.882Z,15.43
2022-10-14T06:54:19.688Z,15.15
2022-10-14T06:55:21.287Z,15.13
2022-10-14T06:56:22.905Z,15.68
2022-10-14T06:57:24.516Z,15.55
2022-10-14T06:58:26.108Z,15.32
2022-10-14T06:59:29.145Z,16.77
2022-10-14T07:00:30.744Z,15.65
2022-10-14T07:01:32.423Z,17.52
2022-10-14T07:02:34.091Z,16.25
2022-10-14T07:03:36.800Z,17.40
2022-10-14T07:04:41.374Z,18.10
2022-10-14T07:05:42.998Z,18.00
2022-10-14T07:06:44.550Z,16.25
2022-10-14T07:07:46.107Z,16.73
2022-10-14T07:08:47.680Z,16.75
2022-10-14T07:09:49.276Z,17.27
2022-10-14T07:10:50.854Z,17.10
2022-10-14T07:11:52.424Z,16.52
2022-10-14T07:12:55.626Z,14.82
2022-10-14T07:13:57.567Z,13.30
2022-10-14T07:14:59.303Z,14.60
2022-10-14T07:16:01.126Z,12.83
2022-10-14T07:17:02.791Z,13.07
2022-10-14T07:18:05.097Z,12.95
2022-10-14T07:19:06.671Z,13.38
2022-10-14T07:20:08.619Z,14.57
2022-10-14T07:21:10.285Z,13.63
2022-10-14T07:22:11.856Z,13.20
2022-10-14T07:23:13.627Z,13.13
2022-10-14T07:24:15.265Z,13.13
2022-10-14T07:25:16.947Z,13.00
2022-10-14T07:26:18.609Z,14.30
2022-10-14T07:27:20.854Z,14.98
2022-10-14T07:28:22.784Z,13.82
2022-10-14T07:29:24.462Z,13.93
2022-10-14T07:30:26.182Z,13.98
2022-10-14T07:31:27.857Z,14.20
2022-10-14T07:32:29.564Z,13.85
2022-10-14T07:33:31.193Z,14.50
2022-10-14T07:34:34.291Z,13.82
2022-10-14T07:35:38.117Z,14.45
2022-10-14T07:36:39.797Z,14.40
2022-10-14T07:37:41.366Z,13.45
2022-10-14T07:38:43.196Z,13.23
2022-10-14T07:39:44.764Z,12.95
2022-10-14T07:40:55.066Z,13.73
2022-10-14T07:41:56.671Z,13.93
2022-10-14T07:42:58.246Z,13.60
2022-10-14T07:44:06.358Z,14.10
2022-10-14T07:45:08.406Z,14.05
2022-10-14T07:46:10.087Z,13.95
2022-10-14T07:47:11.713Z,13.50
2022-10-14T07:48:13.288Z,14.82
2022-10-14T07:49:16.796Z,14.25
2022-10-14T07:50:18.560Z,14.77
2022-10-14T07:51:20.182Z,15.25
2022-10-14T07:52:22.061Z,15.45
2022-10-14T07:53:23.942Z,13.75
2022-10-14T07:54:26.320Z,13.60
2022-10-14T07:55:27.918Z,13.98
2022-10-14T07:56:29.533Z,14.38
2022-10-14T07:57:31.066Z,14.47
2022-10-14T07:58:32.697Z,14.68
2022-10-14T07:59:34.276Z,14.30
2022-10-14T08:00:35.866Z,13.07
2022-10-14T08:01:37.594Z,15.07
2022-10-14T08:02:39.220Z,14.27
2022-10-14T08:03:41.030Z,13.85
2022-10-14T08:04:42.607Z,13.93
2022-10-14T08:05:44.250Z,13.07
2022-10-14T08:06:47.963Z,13.95
2022-10-14T08:07:50.145Z,13.47
2022-10-14T08:08:51.677Z,13.73
2022-10-14T08:09:56.225Z,14.55
2022-10-14T08:11:11.769Z,13.73
2022-10-14T08:12:13.503Z,15.13
2022-10-14T08:13:15.098Z,14.77
2022-10-14T08:14:16.856Z,14.73
2022-10-14T08:15:18.448Z,14.45
2022-10-14T08:16:22.249Z,13.80
2022-10-14T08:17:23.962Z,13.25
2022-10-14T08:18:26.030Z,12.80
2022-10-14T08:19:27.635Z,11.95
2022-10-14T08:20:29.194Z,12.32
2022-10-14T08:21:30.866Z,12.88
2022-10-14T08:22:32.496Z,13.07
2022-10-14T08:23:34.200Z,12.70
2022-10-14T08:24:35.791Z,12.77
2022-10-14T08:25:37.361Z,14.02
2022-10-14T08:26:40.317Z,13.38
2022-10-14T08:27:41.926Z,13.05
2022-10-14T08:28:43.636Z,14.80
2022-10-14T08:29:45.271Z,12.50
2022-10-14T08:30:48.256Z,12.23
2022-10-14T08:31:50.646Z,12.70
2022-10-14T08:32:52.235Z,12.65
2022-10-14T08:33:53.833Z,13.07
2022-10-14T08:34:56.054Z,11.93
2022-10-14T08:35:57.820Z,12.13
2022-10-14T08:36:59.455Z,13.93
2022-10-14T08:38:01.722Z,13.18
2022-10-14T08:39:03.490Z,13.10
2022-10-14T08:40:05.693Z,13.80
2022-10-14T08:41:13.577Z,14.93
2022-10-14T08:42:18.028Z,14.30
2022-10-14T08:43:22.270Z,14.10
2022-10-14T08:44:26.151Z,13.25
2022-10-14T08:45:38.412Z,13.63
2022-10-14T08:46:49.514Z,12.93
2022-10-14T08:47:53.919Z,14.25
2022-10-14T08:49:19.956Z,14.15
2022-10-14T08:50:32.143Z,13.07
2022-10-14T08:51:33.714Z,14.50
2022-10-14T08:52:39.073Z,13.27
2022-10-14T08:53:43.673Z,12.50
2022-10-14T08:54:46.917Z,13.07
2022-10-14T08:55:53.068Z,14.25
2022-10-14T08:56:55.009Z,14.65
2022-10-14T08:58:29.080Z,14.25
2022-10-14T08:59:30.895Z,12.55
2022-10-14T09:00:32.453Z,13.85
2022-10-14T09:01:35.323Z,13.37
2022-10-14T09:02:44.332Z,13.35
2022-10-14T09:03:45.970Z,13.50
2022-10-14T09:04:47.563Z,13.45
2022-10-14T09:06:12.007Z,13.95
2022-10-14T09:07:16.891Z,13.90
2022-10-14T09:08:18.610Z,13.65
2022-10-14T09:09:31.431Z,14.05
2022-10-14T09:10:37.250Z,13.85
2022-10-14T09:11:40.308Z,13.65
2022-10-14T09:12:42.770Z,13.43
2022-10-14T09:13:47.118Z,15.98
2022-10-14T09:14:59.942Z,15.13
2022-10-14T09:16:08.474Z,14.00
2022-10-14T09:17:27.694Z,13.18
2022-10-14T09:18:35.274Z,12.93
2022-10-14T09:19:47.021Z,13.20
2022-10-14T09:20:48.565Z,13.63
2022-10-14T09:21:53.286Z,13.05
2022-10-14T09:23:17.769Z,13.38
2022-10-14T09:24:27.394Z,12.33
2022-10-14T09:25:29.005Z,12.00
2022-10-14T09:26:38.609Z,13.93
2022-10-14T09:27:40.297Z,12.77
2022-10-14T09:28:42.994Z,13.80
2022-10-14T09:29:54.549Z,13.18
2022-10-14T09:30:56.114Z,12.73
2022-10-14T09:32:02.885Z,13.35
2022-10-14T09:33:04.793Z,13.85
2022-10-14T09:34:07.027Z,12.90
2022-10-14T09:35:24.752Z,12.53
2022-10-14T09:36:26.836Z,12.85
2022-10-14T09:37:35.621Z,13.48
2022-10-14T09:38:37.254Z,12.50
2022-10-14T09:39:39.928Z,14.38
2022-10-14T09:40:45.335Z,13.38
2022-10-14T09:41:48.776Z,13.25
2022-10-14T09:43:12.859Z,13.00
2022-10-14T09:44:25.898Z,12.40
2022-10-14T09:45:29.217Z,13.10
2022-10-14T09:46:30.838Z,13.00
2022-10-14T09:47:32.489Z,13.40
2022-10-14T09:48:43.682Z,13.13
2022-10-14T09:49:46.398Z,12.43
2022-10-14T09:50:52.718Z,13.23
2022-10-14T09:51:56.874Z,14.13
2022-10-14T09:53:02.819Z,13.15
2022-10-14T09:54:04.825Z,13.45
2022-10-14T09:55:06.779Z,13.43
2022-10-14T09:56:09.063Z,13.40
2022-10-14T09:57:17.373Z,12.87
2022-10-14T09:58:21.095Z,12.98
2022-10-14T09:59:22.774Z,12.95
2022-10-14T10:00:26.369Z,13.23
2022-10-14T10:01:36.277Z,13.93
2022-10-14T10:02:42.108Z,13.82
2022-10-14T10:03:46.021Z,13.35
2022-10-14T10:04:48.018Z,12.68
2022-10-14T10:05:49.688Z,12.65
2022-10-14T10:06:53.236Z,13.80
2022-10-14T10:08:13.608Z,14.50
2022-10-14T10:09:18.318Z,13.50
2022-10-14T10:10:21.375Z,13.43
2022-10-14T10:11:49.011Z,14.02
2022-10-14T10:12:50.645Z,14.52
2022-10-14T10:13:52.185Z,13.68
2022-10-14T10:14:59.393Z,14.75
2022-10-14T10:16:03.357Z,13.60
2022-10-14T10:17:07.949Z,14.05
2022-10-14T10:18:18.660Z,14.88
2022-10-14T10:19:29.985Z,15.07
2022-10-14T10:20:35.534Z,14.60
2022-10-14T10:21:37.544Z,14.15
2022-10-14T10:22:39.949Z,15.25
2022-10-14T10:23:59.504Z,15.02
2022-10-14T10:25:01.174Z,13.50
2022-10-14T10:26:26.796Z,14.15
2022-10-14T10:27:36.217Z,14.77
2022-10-14T10:28:37.812Z,15.50
2022-10-14T10:29:39.472Z,15.35
2022-10-14T10:30:57.921Z,16.80
2022-10-14T10:32:06.526Z,14.35
2022-10-14T10:33:22.193Z,14.90
2022-10-14T10:34:34.645Z,15.30
2022-10-14T10:35:48.803Z,22.08
2022-10-14T10:36:57.508Z,15.15
2022-10-14T10:38:10.066Z,14.02
2022-10-14T10:39:30.007Z,15.50
2022-10-14T10:40:47.702Z,14.13
2022-10-14T10:42:01.430Z,13.52
2022-10-14T10:43:11.558Z,13.90
2022-10-14T10:44:58.871Z,13.52
2022-10-14T10:46:37.220Z,14.10
2022-10-14T10:47:47.344Z,13.60
2022-10-14T10:49:14.877Z,13.80
2022-10-14T10:50:57.723Z,13.70
2022-10-14T10:52:23.362Z,12.57
2022-10-14T10:53:44.084Z,13.73
2022-10-14T10:55:10.992Z,14.65
2022-10-14T10:56:24.704Z,12.35
2022-10-14T10:57:39.230Z,14.37
2022-10-14T10:58:58.910Z,12.63
2022-10-14T11:00:03.731Z,12.88
2022-10-14T11:01:17.347Z,12.93
2022-10-14T11:02:38.227Z,13.13
2022-10-14T11:03:43.879Z,13.40
2022-10-14T11:04:57.574Z,13.50
2022-10-14T11:06:14.812Z,13.10
2022-10-14T11:07:49.492Z,13.15
2022-10-14T11:09:18.172Z,13.75
2022-10-14T11:10:57.057Z,12.30
2022-10-14T11:12:03.832Z,12.65
2022-10-14T11:13:38.788Z,13.32
2022-10-14T11:14:47.254Z,11.88
2022-10-14T11:16:12.847Z,12.88
2022-10-14T11:19:02.899Z,13.60
2022-10-14T11:20:36.959Z,13.60
2022-10-14T11:22:04.530Z,12.88
2022-10-14T11:23:06.676Z,12.88
2022-10-14T11:24:26.437Z,13.57
2022-10-14T11:25:58.839Z,13.15
2022-10-14T11:27:09.513Z,13.75
2022-10-14T11:28:14.703Z,14.88
2022-10-14T11:29:35.542Z,14.15
2022-10-14T11:30:52.021Z,14.20
2022-10-14T11:31:56.891Z,13.77
2022-10-14T11:33:39.769Z,12.75
2022-10-14T11:34:44.392Z,14.05
2022-10-14T11:36:43.022Z,14.82
2022-10-14T11:38:06.039Z,14.13
2022-10-14T11:39:22.892Z,14.65
2022-10-14T11:40:49.801Z,14.68
2022-10-14T11:42:01.619Z,14.50
2022-10-14T11:43:15.082Z,15.30
2022-10-14T11:45:52.708Z,15.57
2022-10-14T11:46:56.507Z,14.68
2022-10-14T11:48:21.489Z,15.40
2022-10-14T11:49:25.081Z,14.68
2022-10-14T11:50:39.434Z,13.93
2022-10-14T11:51:52.899Z,15.68
2022-10-14T11:52:58.555Z,14.77
2022-10-14T11:54:05.872Z,15.05
2022-10-14T11:55:29.107Z,15.85
2022-10-14T11:56:44.163Z,15.52
2022-10-14T11:57:48.733Z,17.90
2022-10-14T11:58:51.992Z,16.40
2022-10-14T11:59:56.601Z,15.65
2022-10-14T12:01:00.277Z,16.70
2022-10-14T12:02:26.080Z,16.00
2022-10-14T12:03:49.734Z,16.15
2022-10-14T12:04:58.489Z,15.73
2022-10-14T12:06:04.257Z,15.68
2022-10-14T12:07:09.954Z,15.95
2022-10-14T12:08:14.585Z,15.48
2022-10-14T12:09:23.865Z,15.52
2022-10-14T12:10:27.933Z,15.68
2022-10-14T12:11:38.097Z,14.73
2022-10-14T12:12:39.667Z,15.43
2022-10-14T12:13:44.682Z,15.80
2022-10-14T12:14:58.037Z,15.38
2022-10-14T12:16:01.159Z,15.90
2022-10-14T12:17:07.723Z,17.42
2022-10-14T12:18:09.984Z,16.58
2022-10-14T12:19:12.766Z,16.50
2022-10-14T12:20:44.939Z,16.20
2022-10-14T12:21:50.829Z,16.52
2022-10-14T12:22:52.507Z,15.45
2022-10-14T12:23:56.897Z,17.33
2022-10-14T12:25:01.331Z,17.80
2022-10-14T12:26:04.556Z,16.02
2022-10-14T12:27:06.871Z,17.83
2022-10-14T12:28:09.745Z,18.00
2022-10-14T12:29:13.916Z,20.02
2022-10-14T12:30:38.419Z,20.30
2022-10-14T12:31:40.105Z,18.48
2022-10-14T12:32:59.697Z,18.50
2022-10-14T12:34:18.974Z,16.75
2022-10-14T12:36:02.074Z,17.90
2022-10-14T12:37:35.665Z,17.70
2022-10-14T12:38:37.487Z,16.92
2022-10-14T12:39:42.048Z,17.63
2022-10-14T12:40:43.615Z,17.48
2022-10-14T12:42:10.601Z,17.42
2022-10-14T12:43:14.671Z,16.67
2022-10-14T12:44:18.803Z,16.15
2022-10-14T12:45:21.640Z,16.90
2022-10-14T12:46:23.271Z,17.85
2022-10-14T12:47:32.221Z,16.67
2022-10-14T12:48:34.294Z,16.43
2022-10-14T12:49:36.081Z,18.40
2022-10-14T12:50:38.214Z,17.27
2022-10-14T12:51:39.849Z,17.33
2022-10-14T12:52:44.767Z,17.77
2022-10-14T12:53:51.762Z,17.77
2022-10-14T12:54:53.353Z,16.95
2022-10-14T12:55:59.644Z,17.17
2022-10-14T12:57:05.696Z,17.58
2022-10-14T12:58:07.254Z,17.88
2022-10-14T12:59:09.847Z,17.57
2022-10-14T13:00:17.809Z,16.88
2022-10-14T13:01:21.453Z,16.48
2022-10-14T13:02:35.194Z,17.35
2022-10-14T13:03:44.047Z,16.98
2022-10-14T13:04:49.734Z,17.25
2022-10-14T13:05:51.282Z,16.83
2022-10-14T13:07:40.322Z,17.27
2022-10-14T13:08:42.577Z,16.15
2022-10-14T13:09:47.592Z,18.10
2022-10-14T13:10:54.748Z,16.03
2022-10-14T13:11:56.265Z,16.73
2022-10-14T13:12:59.813Z,17.60
2022-10-14T13:14:01.627Z,16.40
2022-10-14T13:15:05.345Z,16.50
2022-10-14T13:16:25.274Z,16.90
2022-10-14T13:17:42.228Z,16.20
2022-10-14T13:18:44.368Z,17.42
2022-10-14T13:19:46.092Z,17.40
2022-10-14T13:20:51.586Z,16.65
2022-10-14T13:21:53.332Z,16.70
2022-10-14T13:23:31.695Z,17.23
2022-10-14T13:24:38.134Z,15.63
2022-10-14T13:25:39.689Z,16.75
2022-10-14T13:26:56.961Z,15.85
2022-10-14T13:28:27.660Z,16.05
2022-10-14T13:30:01.022Z,15.48
2022-10-14T13:32:32.463Z,16.15
2022-10-14T13:33:42.599Z,15.05
2022-10-14T13:35:12.352Z,15.80
2022-10-14T13:36:17.133Z,16.17
2022-10-14T13:37:34.093Z,15.10
2022-10-14T13:38:35.941Z,15.52
2022-10-14T13:39:37.498Z,16.00
2022-10-14T13:40:43.171Z,15.85
2022-10-14T13:41:45.351Z,15.82
2022-10-14T13:42:50.710Z,16.20
2022-10-14T13:43:53.755Z,16.33
2022-10-14T13:44:57.016Z,15.68
2022-10-14T13:46:04.344Z,15.57
2022-10-14T13:47:05.951Z,15.52
2022-10-14T13:48:13.964Z,16.35
2022-10-14T13:49:17.900Z,16.08
2022-10-14T13:50:25.445Z,16.33
2022-10-14T13:51:43.243Z,15.70
2022-10-14T13:53:15.501Z,15.73
2022-10-14T13:54:24.618Z,16.30
2022-10-14T13:55:27.213Z,18.88
2022-10-14T13:56:29.983Z,16.75
2022-10-14T13:58:07.467Z,19.40
2022-10-14T13:58:53.303Z,26.17
2022-10-14T14:01:17.780Z,96.20
2022-10-14T14:02:21.615Z,142.40
2022-10-14T14:03:39.146Z,94.65
2022-10-14T14:04:40.804Z,61.97
2022-10-14T14:05:42.392Z,39.70
2022-10-14T14:07:00.477Z,43.05
2022-10-14T14:08:34.885Z,26.23
2022-10-14T14:09:27.699Z,16.63
2022-10-14T14:10:29.314Z,16.90
2022-10-14T14:11:32.874Z,25.17
2022-10-14T14:12:34.509Z,36.50
2022-10-14T14:13:50.264Z,20.83
2022-10-14T14:14:54.994Z,26.90